Aérodrome :
LOGIN :

S'inscrire | Disclaimer

   EN    FR    IT 

 










Légende :    VFR   VFR Marginal   IFR   IFR Intensif   IFR Très Intensif
Visi : 
Plafond : 
>= 8 km
>= 3000ft
5 à 8 km
1000 à 3000 ft
1500m à 5 km
500 à 1000 ft
800 à 1500m
200 à 500 ft
< 800m
< 200 ft
Symboles :   Orages  Brouillard  Fortes neiges  Fortes précipitations  Vent > 20 kt
SIGMETs :   Divers  Orages  Givrage  Turbulence  Onde Orograph.  Cendres Volcan.






- Altitude de l'aérodrome : 16 ft
- Code IATA : LPX


EVLA - Liepaja

DERNIER METAR :
  • 281320Z AUTO 19010KT 160V220 9999 BKN180/// BKN210/// 11/07 Q1009

METARs EXPIRÉS :
  • 281220Z AUTO 18012KT 140V210 9999 BKN190/// 11/07 Q1009
  • 281150Z AUTO 18010KT 150V220 9999 SCT190/// BKN220/// 12/07 Q1010
  • 281120Z AUTO 20013KT 170V230 9999 BKN210/// 12/07 Q1010
  • 281050Z AUTO 19010KT 160V220 9999 BKN210/// BKN240/// 12/08 Q1010

TAF TAF EVLA
Valide du 28 à 12h jusqu'au 29 à 12h UTC


281103Z 2812/2912 17010KT 9999 SCT015
TEMPO 2818/2824 4000 RA BKN007 OVC015
TEMPO 2900/2909 3000 BR BKN005 BKN015



MET'MAP, la Météo Aéronautique d'un coup d'oeil ! - Copyright ORBIFLY Décembre 2007 - Disclaimer

ORBIFLY MET'MAP TEAM :

Programmation & Développement : Alexandra Zaïnal
Sur une idée originale de : Baudouin d'Aumeries
Assistance à la programmation : Marc-Olivier Méhu
Soutien technique & logistique : Manuel Goepfert

Contact : metmap@orbifly.com




SOURCES & CREDITS :

   NOAA